createdAt,value
2017-04-12T00:00:14.028Z,15.73
2017-04-12T00:01:13.110Z,18.02
2017-04-12T00:02:12.230Z,16.02
2017-04-12T00:03:11.334Z,19.02
2017-04-12T00:04:10.470Z,20.32
2017-04-12T00:05:09.542Z,19.60
2017-04-12T00:06:08.614Z,19.55
2017-04-12T00:07:07.712Z,22.18
2017-04-12T00:08:06.796Z,19.02
2017-04-12T00:09:06.198Z,20.95
2017-04-12T00:10:05.315Z,19.67
2017-04-12T00:11:04.396Z,21.97
2017-04-12T00:12:03.489Z,25.30
2017-04-12T00:13:02.557Z,19.43
2017-04-12T00:14:01.628Z,24.05
2017-04-12T00:15:00.746Z,21.97
2017-04-12T00:15:59.819Z,22.72
2017-04-12T00:16:59.670Z,22.28
2017-04-12T00:17:58.750Z,22.75
2017-04-12T00:18:58.554Z,23.63
2017-04-12T00:19:58.370Z,20.90
2017-04-12T00:20:57.746Z,23.77
2017-04-12T00:21:57.586Z,22.70
2017-04-12T00:22:56.703Z,23.72
2017-04-12T00:23:55.776Z,21.63
2017-04-12T00:24:54.834Z,22.43
2017-04-12T00:25:53.890Z,21.58
2017-04-12T00:26:53.746Z,26.05
2017-04-12T00:27:52.827Z,21.77
2017-04-12T00:28:51.891Z,23.92
2017-04-12T00:29:50.955Z,23.47
2017-04-12T00:30:50.035Z,21.12
2017-04-12T00:31:49.130Z,24.73
2017-04-12T00:32:48.210Z,20.80
2017-04-12T00:33:47.316Z,28.18
2017-04-12T00:34:46.407Z,22.73
2017-04-12T00:35:45.494Z,21.45
2017-04-12T00:36:44.578Z,22.83
2017-04-12T00:37:43.679Z,20.65
2017-04-12T00:38:42.750Z,21.33
2017-04-12T00:39:41.835Z,19.70
2017-04-12T00:40:40.926Z,21.62
2017-04-12T00:41:40.003Z,24.08
2017-04-12T00:42:39.111Z,22.23
2017-04-12T00:43:38.177Z,22.57
2017-04-12T00:44:37.251Z,21.60
2017-04-12T00:45:36.379Z,20.05
2017-04-12T00:46:35.450Z,21.65
2017-04-12T00:47:34.558Z,24.00
2017-04-12T00:48:33.637Z,20.55
2017-04-12T00:49:32.737Z,23.20
2017-04-12T00:50:31.792Z,21.37
2017-04-12T00:51:30.884Z,22.15
2017-04-12T00:52:30.002Z,25.62
2017-04-12T00:53:29.082Z,22.63
2017-04-12T00:54:28.907Z,20.05
2017-04-12T00:55:28.013Z,18.12
2017-04-12T00:56:27.126Z,18.08
2017-04-12T00:57:26.211Z,20.47
2017-04-12T00:58:25.298Z,19.28
2017-04-12T00:59:24.394Z,21.37
2017-04-12T01:00:23.587Z,20.52
2017-04-12T01:01:22.655Z,19.82
2017-04-12T01:02:21.767Z,18.22
2017-04-12T01:03:21.587Z,19.62
2017-04-12T01:04:20.658Z,23.67
2017-04-12T01:05:19.735Z,20.78
2017-04-12T01:06:19.594Z,19.18
2017-04-12T01:07:19.209Z,19.95
2017-04-12T01:08:18.614Z,19.33
2017-04-12T01:09:17.703Z,18.28
2017-04-12T01:10:16.790Z,16.40
2017-04-12T01:11:15.878Z,18.78
2017-04-12T01:12:14.960Z,18.63
2017-04-12T01:13:14.440Z,17.58
2017-04-12T01:14:13.542Z,18.52
2017-04-12T01:15:12.655Z,16.87
2017-04-12T01:16:11.697Z,19.00
2017-04-12T01:17:10.758Z,17.07
2017-04-12T01:18:09.839Z,20.35
2017-04-12T01:19:09.039Z,15.50
2017-04-12T01:20:08.118Z,17.10
2017-04-12T01:21:07.175Z,18.45
2017-04-12T01:22:06.266Z,18.27
2017-04-12T01:23:05.335Z,19.20
2017-04-12T01:24:04.391Z,19.30
2017-04-12T01:25:03.655Z,19.03
2017-04-12T01:26:02.747Z,18.18
2017-04-12T01:27:01.818Z,17.70
2017-04-12T01:28:00.943Z,18.72
2017-04-12T01:29:00.011Z,16.35
2017-04-12T01:29:59.092Z,16.63
2017-04-12T01:30:58.566Z,17.95
2017-04-12T01:31:57.652Z,18.20
2017-04-12T01:32:56.734Z,18.60
2017-04-12T01:33:55.798Z,20.62
2017-04-12T01:34:54.903Z,16.87
2017-04-12T01:35:53.982Z,17.83
2017-04-12T01:36:53.192Z,15.05
2017-04-12T01:37:52.504Z,20.08
2017-04-12T01:38:52.330Z,17.50
2017-04-12T01:39:51.380Z,15.82
2017-04-12T01:40:50.469Z,15.55
2017-04-12T01:41:49.531Z,15.72
2017-04-12T01:42:48.738Z,18.53
2017-04-12T01:43:47.798Z,18.07
2017-04-12T01:44:46.882Z,17.30
2017-04-12T01:45:46.701Z,17.70
2017-04-12T01:46:45.770Z,17.50
2017-04-12T01:47:44.860Z,16.45
2017-04-12T01:48:44.062Z,18.70
2017-04-12T01:49:43.239Z,17.20
2017-04-12T01:50:42.322Z,18.08
2017-04-12T01:51:41.408Z,17.52
2017-04-12T01:52:40.479Z,17.35
2017-04-12T01:53:39.574Z,19.33
2017-04-12T01:54:39.794Z,17.63
2017-04-12T01:55:38.858Z,17.52
2017-04-12T01:56:37.962Z,19.73
2017-04-12T01:57:37.047Z,20.10
2017-04-12T01:58:36.135Z,17.78
2017-04-12T01:59:35.210Z,16.80
2017-04-12T02:00:35.171Z,18.40
2017-04-12T02:01:34.251Z,16.83
2017-04-12T02:02:34.451Z,20.52
2017-04-12T02:03:34.251Z,17.63
2017-04-12T02:04:34.062Z,16.57
2017-04-12T02:05:33.862Z,16.47
2017-04-12T02:06:33.211Z,18.37
2017-04-12T02:07:32.274Z,19.22
2017-04-12T02:08:31.677Z,18.37
2017-04-12T02:09:30.758Z,21.37
2017-04-12T02:10:29.819Z,18.25
2017-04-12T02:11:28.877Z,17.58
2017-04-12T02:12:28.945Z,16.80
2017-04-12T02:13:28.051Z,18.58
2017-04-12T02:14:27.126Z,18.27
2017-04-12T02:15:26.230Z,18.88
2017-04-12T02:16:25.297Z,19.22
2017-04-12T02:17:24.374Z,16.62
2017-04-12T02:18:24.078Z,19.73
2017-04-12T02:19:23.155Z,20.38
2017-04-12T02:20:22.239Z,19.30
2017-04-12T02:21:21.316Z,17.97
2017-04-12T02:22:20.423Z,20.80
2017-04-12T02:23:19.494Z,19.13
2017-04-12T02:24:18.714Z,18.38
2017-04-12T02:25:17.782Z,18.52
2017-04-12T02:26:16.858Z,17.42
2017-04-12T02:27:15.923Z,17.72
2017-04-12T02:28:15.003Z,18.02
2017-04-12T02:29:14.084Z,17.05
2017-04-12T02:30:13.289Z,18.65
2017-04-12T02:31:12.374Z,17.03
2017-04-12T02:32:11.442Z,18.02
2017-04-12T02:33:10.503Z,19.75
2017-04-12T02:34:09.578Z,16.07
2017-04-12T02:35:09.451Z,18.05
2017-04-12T02:36:08.711Z,18.40
2017-04-12T02:37:07.817Z,19.60
2017-04-12T02:38:06.880Z,16.42
2017-04-12T02:39:07.354Z,16.92
2017-04-12T02:40:07.156Z,19.28
2017-04-12T02:41:06.226Z,16.87
2017-04-12T02:42:05.452Z,17.63
2017-04-12T02:43:04.511Z,17.32
2017-04-12T02:44:04.311Z,17.40
2017-04-12T02:45:04.103Z,18.67
2017-04-12T02:46:03.199Z,17.95
2017-04-12T02:47:02.263Z,19.00
2017-04-12T02:48:01.531Z,18.73
2017-04-12T02:49:01.326Z,18.78
2017-04-12T02:50:00.422Z,18.77
2017-04-12T02:50:59.490Z,18.95
2017-04-12T02:51:58.570Z,20.15
2017-04-12T02:52:57.640Z,17.13
2017-04-12T02:53:57.074Z,17.95
2017-04-12T02:54:56.184Z,18.73
2017-04-12T02:55:55.274Z,17.22
2017-04-12T02:56:55.092Z,16.55
2017-04-12T02:57:54.178Z,17.68
2017-04-12T02:58:53.343Z,17.40
2017-04-12T02:59:53.326Z,16.08
2017-04-12T03:00:52.438Z,15.68
2017-04-12T03:01:52.250Z,15.72
2017-04-12T03:02:52.059Z,15.37
2017-04-12T03:03:51.132Z,17.77
2017-04-12T03:04:50.941Z,15.68
2017-04-12T03:05:50.290Z,15.18
2017-04-12T03:06:49.379Z,18.55
2017-04-12T03:07:48.723Z,18.35
2017-04-12T03:08:47.800Z,14.38
2017-04-12T03:09:46.970Z,17.10
2017-04-12T03:10:46.793Z,17.07
2017-04-12T03:11:46.017Z,16.43
2017-04-12T03:12:45.087Z,16.58
2017-04-12T03:13:44.148Z,15.22
2017-04-12T03:14:43.223Z,17.18
2017-04-12T03:15:42.306Z,14.70
2017-04-12T03:16:41.403Z,16.15
2017-04-12T03:17:40.735Z,15.97
2017-04-12T03:18:39.803Z,17.15
2017-04-12T03:19:38.875Z,16.10
2017-04-12T03:20:37.935Z,17.22
2017-04-12T03:21:36.999Z,14.92
2017-04-12T03:22:36.047Z,15.70
2017-04-12T03:23:35.984Z,15.52
2017-04-12T03:24:35.035Z,18.48
2017-04-12T03:25:34.096Z,17.03
2017-04-12T03:26:33.161Z,19.45
2017-04-12T03:27:32.963Z,20.75
2017-04-12T03:28:32.751Z,18.72
2017-04-12T03:29:32.722Z,15.28
2017-04-12T03:30:31.771Z,17.00
2017-04-12T03:31:30.843Z,16.30
2017-04-12T03:32:29.907Z,16.58
2017-04-12T03:33:28.959Z,16.12
2017-04-12T03:34:28.763Z,15.60
2017-04-12T03:35:28.151Z,14.92
2017-04-12T03:36:27.195Z,16.05
2017-04-12T03:37:26.319Z,15.53
2017-04-12T03:38:25.369Z,15.00
2017-04-12T03:39:24.430Z,14.67
2017-04-12T03:40:23.474Z,15.45
2017-04-12T03:41:22.976Z,15.45
2017-04-12T03:42:22.803Z,15.30
2017-04-12T03:43:21.870Z,14.67
2017-04-12T03:44:20.945Z,15.63
2017-04-12T03:45:20.132Z,14.65
2017-04-12T03:46:19.184Z,15.93
2017-04-12T03:47:18.507Z,16.72
2017-04-12T03:48:17.593Z,15.47
2017-04-12T03:49:16.667Z,15.18
2017-04-12T03:50:15.714Z,14.42
2017-04-12T03:51:14.766Z,19.02
2017-04-12T03:52:13.831Z,15.07
2017-04-12T03:53:13.020Z,14.45
2017-04-12T03:54:12.076Z,16.47
2017-04-12T03:55:11.426Z,15.02
2017-04-12T03:56:11.219Z,15.25
2017-04-12T03:57:10.271Z,17.12
2017-04-12T03:58:09.710Z,17.10
2017-04-12T03:59:08.955Z,15.43
2017-04-12T04:00:08.346Z,20.87
2017-04-12T04:01:07.407Z,13.30
2017-04-12T04:02:06.510Z,14.82
2017-04-12T04:03:05.562Z,16.98
2017-04-12T04:04:04.619Z,13.97
2017-04-12T04:05:03.807Z,14.87
2017-04-12T04:06:03.607Z,13.40
2017-04-12T04:07:02.695Z,14.82
2017-04-12T04:08:02.494Z,15.62
2017-04-12T04:09:01.555Z,15.32
2017-04-12T04:10:00.611Z,15.30
2017-04-12T04:10:59.830Z,13.25
2017-04-12T04:11:58.887Z,15.65
2017-04-12T04:12:57.949Z,12.90
2017-04-12T04:13:57.327Z,14.13
2017-04-12T04:14:57.123Z,14.03
2017-04-12T04:15:56.272Z,13.38
2017-04-12T04:16:55.566Z,15.13
2017-04-12T04:17:54.657Z,14.25
2017-04-12T04:18:53.712Z,14.60
2017-04-12T04:19:52.780Z,15.40
2017-04-12T04:20:52.139Z,16.48
2017-04-12T04:21:52.263Z,16.98
2017-04-12T04:22:51.826Z,15.25
2017-04-12T04:23:50.911Z,16.30
2017-04-12T04:24:49.970Z,15.02
2017-04-12T04:25:49.031Z,14.33
2017-04-12T04:26:48.083Z,15.23
2017-04-12T04:27:47.882Z,14.47
2017-04-12T04:28:47.308Z,14.88
2017-04-12T04:29:46.368Z,14.60
2017-04-12T04:30:46.170Z,15.33
2017-04-12T04:31:45.978Z,15.65
2017-04-12T04:32:45.038Z,16.05
2017-04-12T04:33:44.089Z,15.22
2017-04-12T04:34:43.315Z,14.82
2017-04-12T04:35:42.360Z,12.65
2017-04-12T04:36:41.424Z,13.33
2017-04-12T04:37:40.483Z,13.62
2017-04-12T04:38:40.279Z,15.43
2017-04-12T04:39:40.154Z,13.32
2017-04-12T04:40:39.443Z,14.80
2017-04-12T04:41:38.505Z,15.27
2017-04-12T04:42:37.570Z,15.83
2017-04-12T04:43:36.698Z,15.40
2017-04-12T04:44:35.758Z,14.95
2017-04-12T04:45:34.811Z,15.45
2017-04-12T04:46:34.021Z,15.52
2017-04-12T04:47:33.086Z,16.08
2017-04-12T04:48:32.145Z,15.03
2017-04-12T04:49:32.135Z,16.05
2017-04-12T04:50:31.190Z,17.95
2017-04-12T04:51:30.247Z,14.98
2017-04-12T04:52:29.338Z,15.55
2017-04-12T04:53:28.411Z,18.20
2017-04-12T04:54:27.699Z,16.93
2017-04-12T04:55:26.769Z,16.28
2017-04-12T04:56:25.849Z,15.15
2017-04-12T04:57:24.930Z,16.40
2017-04-12T04:58:23.975Z,15.58
2017-04-12T04:59:23.775Z,18.45
2017-04-12T05:00:22.861Z,15.32
2017-04-12T05:01:22.395Z,15.25
2017-04-12T05:02:21.478Z,14.58
2017-04-12T05:03:21.267Z,15.70
2017-04-12T05:04:20.327Z,16.45
2017-04-12T05:05:19.403Z,17.18
2017-04-12T05:06:18.482Z,16.23
2017-04-12T05:07:17.582Z,16.13
2017-04-12T05:08:16.634Z,16.78
2017-04-12T05:09:15.713Z,15.07
2017-04-12T05:10:14.774Z,15.85
2017-04-12T05:11:13.944Z,16.68
2017-04-12T05:12:13.035Z,15.78
2017-04-12T05:13:12.099Z,18.00
2017-04-12T05:14:11.172Z,16.15
2017-04-12T05:15:10.224Z,17.43
2017-04-12T05:16:09.338Z,16.77
2017-04-12T05:17:08.832Z,16.38
2017-04-12T05:18:07.914Z,19.37
2017-04-12T05:19:06.983Z,19.47
2017-04-12T05:20:06.063Z,16.97
2017-04-12T05:21:05.147Z,17.90
2017-04-12T05:22:04.358Z,17.77
2017-04-12T05:23:03.427Z,18.27
2017-04-12T05:24:02.503Z,17.70
2017-04-12T05:25:01.563Z,15.73
2017-04-12T05:26:01.432Z,18.32
2017-04-12T05:27:00.518Z,18.37
2017-04-12T05:27:59.632Z,19.37
2017-04-12T05:28:58.716Z,17.40
2017-04-12T05:29:57.803Z,17.28
2017-04-12T05:30:57.656Z,17.00
2017-04-12T05:31:56.730Z,17.85
2017-04-12T05:32:55.886Z,16.50
2017-04-12T05:33:54.966Z,19.37
2017-04-12T05:34:54.025Z,18.75
2017-04-12T05:35:53.090Z,18.23
2017-04-12T05:36:52.165Z,17.72
2017-04-12T05:37:51.259Z,17.28
2017-04-12T05:38:50.344Z,17.78
2017-04-12T05:39:49.407Z,19.15
2017-04-12T05:40:48.488Z,17.08
2017-04-12T05:41:47.552Z,18.10
2017-04-12T05:42:46.680Z,19.32
2017-04-12T05:43:45.783Z,19.65
2017-04-12T05:44:44.894Z,22.37
2017-04-12T05:45:43.968Z,16.90
2017-04-12T05:46:43.098Z,17.98
2017-04-12T05:47:42.255Z,19.87
2017-04-12T05:48:41.340Z,18.12
2017-04-12T05:49:40.443Z,20.28
2017-04-12T05:50:39.540Z,19.62
2017-04-12T05:51:38.657Z,18.70
2017-04-12T05:52:37.741Z,20.08
2017-04-12T05:53:36.826Z,17.20
2017-04-12T05:54:35.908Z,20.48
2017-04-12T05:55:35.080Z,18.55
2017-04-12T05:56:34.185Z,18.37
2017-04-12T05:57:33.330Z,18.98
2017-04-12T05:58:34.111Z,17.53
2017-04-12T05:59:33.194Z,17.77
2017-04-12T06:00:32.368Z,16.70
2017-04-12T06:01:31.453Z,20.87
2017-04-12T06:02:30.534Z,20.30
2017-04-12T06:03:29.645Z,20.75
2017-04-12T06:04:28.732Z,18.97
2017-04-12T06:05:27.872Z,17.88
2017-04-12T06:06:26.946Z,16.87
2017-04-12T06:07:26.070Z,19.15
2017-04-12T06:08:26.155Z,19.42
2017-04-12T06:09:25.323Z,19.60
2017-04-12T06:10:24.408Z,19.65
2017-04-12T06:11:23.719Z,19.48
2017-04-12T06:12:22.803Z,19.73
2017-04-12T06:13:21.883Z,19.52
2017-04-12T06:14:20.996Z,19.62
2017-04-12T06:15:20.076Z,19.33
2017-04-12T06:16:19.183Z,20.25
2017-04-12T06:17:18.336Z,20.40
2017-04-12T06:18:17.454Z,19.82
2017-04-12T06:19:16.543Z,18.92
2017-04-12T06:20:15.627Z,19.43
2017-04-12T06:21:15.030Z,19.05
2017-04-12T06:22:14.087Z,20.32
2017-04-12T06:23:13.232Z,21.33
2017-04-12T06:24:12.330Z,20.38
2017-04-12T06:25:11.402Z,18.62
2017-04-12T06:26:10.480Z,18.30
2017-04-12T06:27:09.529Z,18.95
2017-04-12T06:28:08.652Z,21.02
2017-04-12T06:29:07.725Z,19.48
2017-04-12T06:30:07.603Z,24.63
2017-04-12T06:31:06.646Z,18.93
2017-04-12T06:32:05.707Z,20.13
2017-04-12T06:33:05.541Z,18.43
2017-04-12T06:34:04.603Z,20.23
2017-04-12T06:35:03.679Z,19.97
2017-04-12T06:36:02.799Z,23.40
2017-04-12T06:37:01.919Z,21.35
2017-04-12T06:38:01.056Z,22.33
2017-04-12T06:39:00.138Z,19.50
2017-04-12T06:39:59.250Z,22.80
2017-04-12T06:40:59.115Z,21.95
2017-04-12T06:41:58.185Z,19.53
2017-04-12T06:42:57.306Z,20.95
2017-04-12T06:43:56.394Z,21.80
2017-04-12T06:44:55.507Z,20.58
2017-04-12T06:45:54.590Z,21.17
2017-04-12T06:46:53.648Z,21.87
2017-04-12T06:47:52.731Z,21.60
2017-04-12T06:48:51.878Z,21.42
2017-04-12T06:49:50.996Z,21.03
2017-04-12T06:50:50.078Z,24.02
2017-04-12T06:51:49.155Z,22.47
2017-04-12T06:52:48.246Z,20.03
2017-04-12T06:53:47.343Z,20.88
2017-04-12T06:54:46.418Z,22.50
2017-04-12T06:55:45.483Z,22.47
2017-04-12T06:56:44.895Z,19.48
2017-04-12T06:57:43.971Z,19.45
2017-04-12T06:58:43.347Z,20.20
2017-04-12T06:59:43.154Z,19.95
2017-04-12T07:00:43.003Z,22.55
2017-04-12T07:01:42.064Z,20.05
2017-04-12T07:02:41.143Z,19.80
2017-04-12T07:03:40.274Z,21.03
2017-04-12T07:04:39.339Z,20.10
2017-04-12T07:05:38.424Z,24.00
2017-04-12T07:06:37.652Z,21.43
2017-04-12T07:07:36.714Z,20.17
2017-04-12T07:08:35.803Z,22.22
2017-04-12T07:09:35.603Z,19.87
2017-04-12T07:10:34.688Z,21.22
2017-04-12T07:11:33.794Z,20.88
2017-04-12T07:12:32.859Z,21.70
2017-04-12T07:13:32.103Z,22.88
2017-04-12T07:14:31.186Z,21.75
2017-04-12T07:15:30.307Z,20.92
2017-04-12T07:16:29.446Z,20.65
2017-04-12T07:17:28.547Z,21.02
2017-04-12T07:18:27.614Z,20.28
2017-04-12T07:19:26.771Z,20.80
2017-04-12T07:20:25.871Z,20.40
2017-04-12T07:21:24.966Z,21.60
2017-04-12T07:36:54.883Z,20.87
2017-04-12T07:37:53.959Z,22.12
2017-04-12T07:38:53.130Z,22.20
2017-04-12T07:39:52.234Z,22.12
2017-04-12T07:40:51.344Z,19.87
2017-04-12T07:41:50.441Z,20.15
2017-04-12T07:42:49.510Z,21.30
2017-04-12T07:43:48.595Z,20.68
2017-04-12T07:44:47.694Z,22.43
2017-04-12T07:45:46.828Z,21.35
2017-04-12T07:46:46.664Z,21.98
2017-04-12T07:47:45.800Z,20.83
2017-04-12T07:48:45.651Z,23.72
2017-04-12T07:49:44.823Z,22.52
2017-04-12T07:50:43.887Z,23.95
2017-04-12T07:51:43.035Z,22.58
2017-04-12T07:52:42.119Z,22.58
2017-04-12T07:53:41.215Z,22.38
2017-04-12T07:54:40.337Z,22.25
2017-04-12T07:55:39.402Z,22.28
2017-04-12T07:56:38.486Z,22.57
2017-04-12T07:57:37.556Z,23.50
2017-04-12T07:58:36.632Z,19.90
2017-04-12T07:59:35.747Z,22.52
2017-04-12T08:00:35.546Z,21.73
2017-04-12T08:01:34.607Z,22.85
2017-04-12T08:02:33.691Z,20.80
2017-04-12T08:03:32.797Z,20.18
2017-04-12T08:04:31.943Z,21.55
2017-04-12T08:05:31.770Z,20.75
2017-04-12T08:06:30.890Z,20.48
2017-04-12T08:07:29.962Z,23.23
2017-04-12T08:08:29.769Z,20.68
2017-04-12T08:09:29.622Z,20.88
2017-04-12T08:10:28.702Z,21.50
2017-04-12T08:11:27.793Z,21.45
2017-04-12T08:12:26.878Z,21.87
2017-04-12T08:13:26.582Z,21.85
2017-04-12T08:14:25.723Z,21.43
2017-04-12T08:15:24.788Z,21.77
2017-04-12T08:16:23.858Z,20.22
2017-04-12T08:17:22.950Z,21.52
2017-04-12T08:18:22.047Z,22.22
2017-04-12T08:19:22.480Z,23.82
2017-04-12T08:20:21.575Z,23.52
2017-04-12T08:21:20.652Z,22.85
2017-04-12T08:22:19.726Z,22.25
2017-04-12T08:23:19.572Z,21.40
2017-04-12T08:24:19.396Z,23.52
2017-04-12T08:25:18.762Z,24.75
2017-04-12T08:26:17.831Z,25.27
2017-04-12T08:27:16.890Z,24.37
2017-04-12T08:28:15.969Z,24.57
2017-04-12T08:29:15.068Z,23.65
2017-04-12T08:30:14.163Z,21.72
2017-04-12T08:31:13.255Z,23.48
2017-04-12T08:32:12.351Z,22.88
2017-04-12T08:33:11.415Z,23.12
2017-04-12T08:34:10.486Z,23.45
2017-04-12T08:35:09.555Z,24.20
2017-04-12T08:36:08.639Z,23.22
2017-04-12T08:37:07.718Z,24.98
2017-04-12T08:38:06.795Z,22.98
2017-04-12T08:39:05.891Z,22.38
2017-04-12T08:40:04.967Z,22.77
2017-04-12T08:41:04.027Z,23.17
2017-04-12T08:42:03.104Z,21.43
2017-04-12T08:43:02.438Z,23.77
2017-04-12T08:44:01.520Z,21.28
2017-04-12T08:45:00.621Z,22.38
2017-04-12T08:46:00.439Z,23.98
2017-04-12T08:46:59.527Z,21.55
2017-04-12T08:47:58.587Z,20.98
2017-04-12T08:48:57.655Z,22.37
2017-04-12T08:49:56.720Z,22.27
2017-04-12T08:50:55.771Z,23.32
2017-04-12T08:51:54.886Z,22.97
2017-04-12T08:52:53.995Z,21.05
2017-04-12T08:53:53.082Z,23.42
2017-04-12T08:54:52.178Z,20.08
2017-04-12T08:55:51.250Z,21.08
2017-04-12T08:56:50.307Z,20.85
2017-04-12T08:57:49.426Z,22.38
2017-04-12T08:58:48.488Z,20.83
2017-04-12T08:59:47.602Z,22.42
2017-04-12T09:00:46.683Z,23.33
2017-04-12T09:01:45.788Z,23.37
2017-04-12T09:02:45.607Z,21.55
2017-04-12T09:03:44.674Z,22.93
2017-04-12T09:04:44.477Z,26.25
2017-04-12T09:05:43.562Z,22.78
2017-04-12T09:06:42.619Z,22.58
2017-04-12T09:07:41.668Z,24.10
2017-04-12T09:08:40.730Z,21.18
2017-04-12T09:09:39.802Z,22.05
2017-04-12T09:10:39.650Z,23.47
2017-04-12T09:11:38.767Z,22.05
2017-04-12T09:12:38.144Z,21.57
2017-04-12T09:13:37.214Z,23.62
2017-04-12T09:14:36.267Z,21.63
2017-04-12T09:15:35.375Z,25.57
2017-04-12T09:16:34.470Z,21.85
2017-04-12T09:17:33.527Z,21.17
2017-04-12T09:18:32.607Z,21.27
2017-04-12T09:19:32.040Z,24.60
2017-04-12T09:20:31.418Z,25.07
2017-04-12T09:21:30.467Z,28.30
2017-04-12T09:22:29.518Z,22.60
2017-04-12T09:23:28.590Z,22.97
2017-04-12T09:24:27.660Z,21.07
2017-04-12T09:25:26.750Z,24.00
2017-04-12T09:26:25.811Z,24.58
2017-04-12T09:27:24.886Z,27.63
2017-04-12T09:28:24.014Z,25.90
2017-04-12T09:29:23.092Z,23.33
2017-04-12T09:30:22.168Z,23.55
2017-04-12T09:31:21.234Z,21.47
2017-04-12T09:32:20.387Z,20.85
2017-04-12T09:33:20.183Z,24.27
2017-04-12T09:34:19.268Z,23.42
2017-04-12T09:35:18.376Z,20.42
2017-04-12T09:36:17.497Z,32.00
2017-04-12T09:37:16.659Z,22.75
2017-04-12T09:38:15.730Z,24.03
2017-04-12T09:39:14.913Z,22.98
2017-04-12T09:40:13.974Z,27.08
2017-04-12T09:41:13.322Z,22.45
2017-04-12T09:42:12.395Z,21.62
2017-04-12T09:43:11.484Z,21.80
2017-04-12T09:44:10.565Z,23.35
2017-04-12T09:45:10.176Z,22.28
2017-04-12T09:46:09.282Z,23.55
2017-04-12T09:47:08.335Z,23.92
2017-04-12T09:48:07.465Z,22.75
2017-04-12T09:49:06.527Z,22.97
2017-04-12T09:50:06.204Z,21.77
2017-04-12T09:51:05.313Z,21.27
2017-04-12T09:52:04.379Z,21.23
2017-04-12T09:53:03.441Z,20.78
2017-04-12T09:54:02.610Z,21.38
2017-04-12T09:55:01.731Z,20.77
2017-04-12T09:56:00.829Z,24.52
2017-04-12T09:56:59.949Z,22.35
2017-04-12T09:57:59.013Z,27.02
2017-04-12T09:58:58.086Z,25.07
2017-04-12T09:59:57.164Z,21.38
2017-04-12T10:00:56.995Z,25.22
2017-04-12T10:01:56.080Z,23.55
2017-04-12T10:02:55.166Z,24.20
2017-04-12T10:03:54.243Z,22.70
2017-04-12T10:04:53.335Z,22.52
2017-04-12T10:05:52.573Z,22.92
2017-04-12T10:06:51.678Z,25.82
2017-04-12T10:07:50.758Z,25.83
2017-04-12T10:08:49.829Z,21.40
2017-04-12T10:09:48.930Z,22.97
2017-04-12T10:10:48.000Z,23.52
2017-04-12T10:11:47.130Z,23.72
2017-04-12T10:12:46.191Z,23.13
2017-04-12T10:13:45.271Z,21.93
2017-04-12T10:14:44.358Z,23.93
2017-04-12T10:15:43.424Z,22.25
2017-04-12T10:16:42.546Z,20.73
2017-04-12T10:17:41.614Z,19.90
2017-04-12T10:18:40.714Z,22.15
2017-04-12T10:19:39.843Z,21.25
2017-04-12T10:20:38.911Z,22.35
2017-04-12T10:21:38.034Z,28.15
2017-04-12T10:22:37.113Z,20.63
2017-04-12T10:23:36.312Z,22.18
2017-04-12T10:24:35.419Z,21.90
2017-04-12T10:25:34.524Z,20.05
2017-04-12T10:26:33.631Z,20.08
2017-04-12T10:27:32.730Z,22.78
2017-04-12T10:28:32.612Z,21.83
2017-04-12T10:29:31.718Z,21.33
2017-04-12T10:30:31.591Z,21.48
2017-04-12T10:31:30.655Z,20.93
2017-04-12T10:32:29.751Z,20.82
2017-04-12T10:33:28.876Z,21.48
2017-04-12T10:34:27.991Z,21.43
2017-04-12T10:35:27.063Z,20.35
2017-04-12T10:36:26.159Z,19.42
2017-04-12T10:37:25.275Z,23.40
2017-04-12T10:38:24.405Z,22.30
2017-04-12T10:39:24.290Z,20.70
2017-04-12T10:40:23.372Z,19.48
2017-04-12T10:41:22.671Z,20.65
2017-04-12T10:42:22.531Z,20.47
2017-04-12T10:43:21.610Z,21.25
2017-04-12T10:44:20.702Z,22.63
2017-04-12T10:45:19.846Z,21.53
2017-04-12T10:46:18.938Z,19.32
2017-04-12T10:47:18.075Z,22.35
2017-04-12T10:48:17.896Z,20.20
2017-04-12T10:49:17.033Z,22.92
2017-04-12T10:50:16.120Z,17.98
2017-04-12T10:51:15.219Z,22.77
2017-04-12T10:52:14.494Z,22.57
2017-04-12T10:53:13.595Z,22.12
2017-04-12T10:54:12.730Z,23.62
2017-04-12T10:55:12.559Z,19.03
2017-04-12T10:56:11.715Z,18.57
2017-04-12T10:57:11.532Z,19.85
2017-04-12T10:58:10.630Z,19.65
2017-04-12T10:59:09.730Z,18.63
2017-04-12T11:00:09.838Z,17.78
2017-04-12T11:01:08.957Z,17.17
2017-04-12T11:02:08.046Z,18.08
2017-04-12T11:03:07.123Z,19.38
2017-04-12T11:04:06.194Z,16.13
2017-04-12T11:05:05.242Z,16.92
2017-04-12T11:06:04.374Z,15.22
2017-04-12T11:07:03.543Z,16.30
2017-04-12T11:08:02.598Z,14.52
2017-04-12T11:09:01.686Z,17.52
2017-04-12T11:10:00.854Z,16.85
2017-04-12T11:11:00.053Z,16.67
2017-04-12T11:11:59.168Z,16.37
2017-04-12T11:12:58.315Z,16.43
2017-04-12T11:13:57.412Z,16.50
2017-04-12T11:14:56.530Z,18.53
2017-04-12T11:15:55.614Z,17.22
2017-04-12T11:16:54.749Z,15.45
2017-04-12T11:17:53.903Z,17.48
2017-04-12T11:18:53.748Z,18.88
2017-04-12T11:19:53.609Z,17.30
2017-04-12T11:20:52.722Z,17.35
2017-04-12T11:21:52.835Z,21.05
2017-04-12T11:22:51.920Z,17.05
2017-04-12T11:23:51.726Z,21.62
2017-04-12T11:24:51.619Z,22.23
2017-04-12T11:25:50.714Z,16.70
2017-04-12T11:26:49.800Z,16.83
2017-04-12T11:27:48.894Z,16.35
2017-04-12T11:28:47.998Z,16.53
2017-04-12T11:29:47.091Z,16.60
2017-04-12T11:30:46.194Z,17.45
2017-04-12T11:31:45.259Z,18.00
2017-04-12T11:32:44.370Z,17.95
2017-04-12T11:33:43.451Z,18.58
2017-04-12T11:34:42.533Z,17.90
2017-04-12T11:35:41.602Z,15.90
2017-04-12T11:36:40.746Z,17.22
2017-04-12T11:37:39.827Z,18.85
2017-04-12T11:38:38.911Z,18.20
2017-04-12T11:39:37.994Z,17.62
2017-04-12T11:40:37.063Z,17.42
2017-04-12T11:41:36.384Z,18.90
2017-04-12T11:42:36.462Z,17.75
2017-04-12T11:43:35.525Z,18.42
2017-04-12T11:44:34.611Z,19.43
2017-04-12T11:45:33.696Z,19.00
2017-04-12T11:46:32.782Z,17.10
2017-04-12T11:47:32.286Z,18.15
2017-04-12T11:48:32.159Z,17.72
2017-04-12T11:49:31.327Z,18.78
2017-04-12T11:50:30.430Z,19.65
2017-04-12T11:51:29.514Z,18.50
2017-04-12T11:52:28.637Z,17.50
2017-04-12T11:53:28.134Z,17.15
2017-04-12T11:54:27.246Z,19.10
2017-04-12T11:55:27.060Z,18.47
2017-04-12T11:56:26.157Z,18.17
2017-04-12T11:57:25.235Z,18.95
2017-04-12T11:58:24.311Z,19.48
2017-04-12T11:59:23.556Z,17.85
2017-04-12T12:00:22.637Z,18.78
2017-04-12T12:01:21.722Z,18.32
2017-04-12T12:02:20.791Z,19.08
2017-04-12T12:03:19.842Z,19.20
2017-04-12T12:04:19.683Z,18.52
2017-04-12T12:05:18.934Z,18.83
2017-04-12T12:06:18.031Z,18.13
2017-04-12T12:07:17.204Z,17.08
2017-04-12T12:08:16.485Z,16.95
2017-04-12T12:09:15.760Z,18.42
2017-04-12T12:10:14.855Z,20.12
2017-04-12T12:11:14.810Z,16.72
2017-04-12T12:12:13.912Z,18.57
2017-04-12T12:13:13.134Z,23.07
2017-04-12T12:14:12.963Z,20.55
2017-04-12T12:15:12.048Z,18.80
2017-04-12T12:16:11.173Z,20.65
2017-04-12T12:17:10.728Z,17.35
2017-04-12T12:18:09.857Z,18.72
2017-04-12T12:19:08.917Z,17.53
2017-04-12T12:20:07.995Z,19.57
2017-04-12T12:21:07.209Z,17.80
2017-04-12T12:22:06.283Z,18.58
2017-04-12T12:23:05.494Z,19.17
2017-04-12T12:24:04.580Z,18.58
2017-04-12T12:25:03.643Z,18.80
2017-04-12T12:26:03.019Z,18.62
2017-04-12T12:27:02.112Z,20.58
2017-04-12T12:28:01.189Z,20.88
2017-04-12T12:29:00.615Z,20.17
2017-04-12T12:29:59.679Z,20.57
2017-04-12T12:30:58.740Z,20.18
2017-04-12T12:31:57.826Z,19.58
2017-04-12T12:32:56.931Z,20.73
2017-04-12T12:33:55.994Z,20.67
2017-04-12T12:34:55.233Z,19.72
2017-04-12T12:35:55.053Z,20.87
2017-04-12T12:36:54.122Z,19.60
2017-04-12T12:37:53.199Z,19.87
2017-04-12T12:38:52.289Z,20.68
2017-04-12T12:39:51.346Z,21.15
2017-04-12T12:40:50.427Z,20.37
2017-04-12T12:41:49.498Z,22.90
2017-04-12T12:42:48.608Z,19.83
2017-04-12T12:43:47.682Z,18.90
2017-04-12T12:44:46.798Z,21.55
2017-04-12T12:45:46.200Z,21.20
2017-04-12T12:46:45.649Z,20.23
2017-04-12T12:47:45.435Z,19.52
2017-04-12T12:48:44.518Z,20.55
2017-04-12T12:49:43.587Z,20.17
2017-04-12T12:50:42.654Z,21.70
2017-04-12T12:51:41.919Z,21.52
2017-04-12T12:52:40.983Z,20.08
2017-04-12T12:53:40.050Z,21.62
2017-04-12T12:54:39.144Z,21.25
2017-04-12T12:55:38.236Z,22.58
2017-04-12T12:56:37.302Z,20.48